createdAt,value
2022-12-25T00:00:27.279Z,100844.44
2022-12-25T00:03:30.047Z,100855.25
2022-12-25T00:06:32.539Z,100866.63
2022-12-25T00:09:35.109Z,100870.25
2022-12-25T00:12:37.448Z,100871.06
2022-12-25T00:15:41.860Z,100884.44
2022-12-25T00:18:45.172Z,100875.84
2022-12-25T00:21:48.343Z,100864.75
2022-12-25T00:24:51.033Z,100887.19
2022-12-25T00:27:53.803Z,100898.25
2022-12-25T00:30:56.159Z,100903.47
2022-12-25T00:33:58.848Z,100897.06
2022-12-25T00:37:01.224Z,100900.94
2022-12-25T00:40:04.162Z,100898.16
2022-12-25T00:43:06.424Z,100906.47
2022-12-25T00:46:11.672Z,100904.84
2022-12-25T00:49:14.200Z,100912.03
2022-12-25T00:52:16.799Z,100903.12
2022-12-25T00:55:19.166Z,100924.22
2022-12-25T00:58:23.018Z,100921.41
2022-12-25T01:01:25.460Z,100926.75
2022-12-25T01:04:28.179Z,100918.72
2022-12-25T01:07:30.523Z,100917.09
2022-12-25T01:10:33.222Z,100930.16
2022-12-25T01:13:36.787Z,100934.91
2022-12-25T01:16:39.553Z,100932.13
2022-12-25T01:19:41.965Z,100929.38
2022-12-25T01:22:45.353Z,100927.12
2022-12-25T01:25:47.910Z,100927.66
2022-12-25T01:28:51.116Z,100947.62
2022-12-25T01:31:53.523Z,100946.81
2022-12-25T01:34:56.605Z,100948.25
2022-12-25T01:37:58.998Z,100943.81
2022-12-25T01:41:01.639Z,100935.44
2022-12-25T01:44:08.309Z,100951.50
2022-12-25T01:47:11.145Z,100968.09
2022-12-25T01:50:13.495Z,100950.03
2022-12-25T01:53:16.280Z,100955.37
2022-12-25T01:56:19.088Z,100947.06
2022-12-25T01:59:23.657Z,100925.41
2022-12-25T02:02:27.803Z,100930.12
2022-12-25T02:05:33.219Z,100951.47
2022-12-25T02:08:35.692Z,100943.09
2022-12-25T02:11:56.484Z,100944.16
2022-12-25T02:15:05.719Z,100938.63
2022-12-25T02:18:26.963Z,100925.31
2022-12-25T02:21:47.361Z,100949.09
2022-12-25T02:25:12.169Z,100944.91
2022-12-25T02:28:30.202Z,100947.38
2022-12-25T02:31:49.809Z,100946.53
2022-12-25T02:35:01.147Z,100957.28
2022-12-25T02:38:11.381Z,100965.56
2022-12-25T02:41:16.882Z,100971.69
2022-12-25T02:44:41.488Z,100965.84
2022-12-25T02:48:02.287Z,100973.63
2022-12-25T02:51:28.319Z,100965.84
2022-12-25T02:54:54.696Z,100963.66
2022-12-25T02:58:21.079Z,100965.34
2022-12-25T03:01:47.179Z,100977.84
2022-12-25T03:05:11.480Z,100965.66
2022-12-25T03:08:20.609Z,100970.34
2022-12-25T03:11:32.459Z,100986.16
2022-12-25T03:14:53.488Z,100988.78
2022-12-25T03:17:59.036Z,100995.41
2022-12-25T03:21:20.111Z,100992.66
2022-12-25T03:24:41.571Z,100999.97
2022-12-25T03:27:46.688Z,100994.44
2022-12-25T03:31:12.702Z,100984.09
2022-12-25T03:35:05.894Z,100994.13
2022-12-25T03:38:36.992Z,101011.81
2022-12-25T03:42:05.385Z,101015.94
2022-12-25T03:45:40.803Z,101001.72
2022-12-25T03:49:08.853Z,101024.16
2022-12-25T03:52:35.100Z,101029.59
2022-12-25T03:55:59.965Z,101030.66
2022-12-25T03:59:24.074Z,101020.84
2022-12-25T04:02:45.499Z,101039.44
2022-12-25T04:06:06.905Z,101032.28
2022-12-25T04:09:27.504Z,101031.44
2022-12-25T04:12:48.809Z,101029.28
2022-12-25T04:16:13.118Z,101005.75
2022-12-25T04:19:34.093Z,101014.91
2022-12-25T04:22:54.979Z,101019.63
2022-12-25T04:26:17.534Z,101006.56
2022-12-25T04:29:38.667Z,101011.28
2022-12-25T04:33:00.248Z,101036.47
2022-12-25T04:36:14.718Z,101035.12
2022-12-25T04:39:17.265Z,101032.28
2022-12-25T04:42:19.631Z,101027.06
2022-12-25T04:45:22.233Z,101003.25
2022-12-25T04:48:25.659Z,101008.84
2022-12-25T04:51:28.350Z,101000.81
2022-12-25T04:54:30.633Z,101007.13
2022-12-25T04:57:33.499Z,101019.56
2022-12-25T05:00:36.292Z,101021.22
2022-12-25T05:03:39.721Z,101029.34
2022-12-25T05:06:42.165Z,101016.25
2022-12-25T05:09:44.782Z,101030.06
2022-12-25T05:12:47.228Z,101022.50
2022-12-25T05:15:50.168Z,101029.63
2022-12-25T05:18:52.622Z,101031.78
2022-12-25T05:21:55.340Z,101045.94
2022-12-25T05:24:57.655Z,101039.19
2022-12-25T05:28:00.304Z,101045.59
2022-12-25T05:31:03.152Z,101045.00
2022-12-25T05:34:05.811Z,101051.84
2022-12-25T05:37:08.252Z,101042.16
2022-12-25T05:40:11.414Z,101050.69
2022-12-25T05:43:13.812Z,101052.28
2022-12-25T05:46:16.682Z,101052.03
2022-12-25T05:49:19.097Z,101049.78
2022-12-25T05:52:21.704Z,101069.09
2022-12-25T05:55:24.026Z,101072.97
2022-12-25T05:58:26.644Z,101075.72
2022-12-25T06:01:29.375Z,101070.63
2022-12-25T06:04:32.151Z,101073.38
2022-12-25T06:07:34.539Z,101085.53
2022-12-25T06:10:37.191Z,101071.72
2022-12-25T06:13:40.113Z,101066.69
2022-12-25T06:16:42.904Z,101078.56
2022-12-25T06:19:45.351Z,101071.72
2022-12-25T06:22:47.932Z,101061.38
2022-12-25T06:25:50.272Z,101067.47
2022-12-25T06:28:53.210Z,101069.41
2022-12-25T06:31:57.342Z,101086.97
2022-12-25T06:35:00.285Z,101072.56
2022-12-25T06:38:02.689Z,101088.97
2022-12-25T06:41:10.978Z,101092.56
2022-12-25T06:44:13.997Z,101085.94
2022-12-25T06:47:17.153Z,101076.09
2022-12-25T06:50:19.541Z,101087.41
2022-12-25T06:53:22.142Z,101093.66
2022-12-25T06:56:27.685Z,101101.19
2022-12-25T06:59:30.277Z,101098.44
2022-12-25T07:02:33.602Z,101113.31
2022-12-25T07:05:36.261Z,101118.09
2022-12-25T07:08:38.796Z,101118.41
2022-12-25T07:11:42.417Z,101128.87
2022-12-25T07:14:48.696Z,101129.69
2022-12-25T07:17:51.321Z,101143.34
2022-12-25T07:20:55.772Z,101147.50
2022-12-25T07:23:58.424Z,101163.06
2022-12-25T07:27:00.818Z,101166.09
2022-12-25T07:30:04.009Z,101159.06
2022-12-25T07:33:06.346Z,101170.03
2022-12-25T07:36:12.602Z,101162.56
2022-12-25T07:39:16.363Z,101159.53
2022-12-25T07:42:24.813Z,101169.69
2022-12-25T07:45:29.875Z,101167.25
2022-12-25T07:48:32.937Z,101180.44
2022-12-25T07:51:35.292Z,101184.78
2022-12-25T07:54:37.885Z,101188.78
2022-12-25T07:57:40.277Z,101182.16
2022-12-25T08:00:42.915Z,101191.12
2022-12-25T08:03:56.385Z,101191.56
2022-12-25T08:06:58.730Z,101201.09
2022-12-25T08:10:02.039Z,101199.19
2022-12-25T08:13:08.964Z,101188.59
2022-12-25T08:16:15.284Z,101204.47
2022-12-25T08:19:17.835Z,101205.03
2022-12-25T08:22:20.584Z,101207.88
2022-12-25T08:25:22.939Z,101202.94
2022-12-25T08:28:25.553Z,101202.25
2022-12-25T08:31:29.394Z,101205.91
2022-12-25T08:34:32.068Z,101214.59
2022-12-25T08:37:34.530Z,101214.16
2022-12-25T08:40:37.161Z,101210.91
2022-12-25T08:43:39.571Z,101217.38
2022-12-25T08:46:42.680Z,101220.88
2022-12-25T08:49:45.072Z,101207.72
2022-12-25T08:52:47.861Z,101219.53
2022-12-25T08:55:57.561Z,101217.91
2022-12-25T08:59:00.260Z,101226.59
2022-12-25T09:02:02.718Z,101221.78
2022-12-25T09:05:06.041Z,101215.84
2022-12-25T09:08:08.781Z,101215.69
2022-12-25T09:11:13.956Z,101221.88
2022-12-25T09:14:16.269Z,101226.28
2022-12-25T09:17:19.636Z,101210.13
2022-12-25T09:20:22.042Z,101223.75
2022-12-25T09:23:24.751Z,101217.41
2022-12-25T09:26:27.329Z,101216.81
2022-12-25T09:29:29.992Z,101222.72
2022-12-25T09:32:32.367Z,101223.03
2022-12-25T09:35:35.179Z,101224.97
2022-12-25T09:38:37.850Z,101220.22
2022-12-25T09:41:58.387Z,101221.50
2022-12-25T09:45:05.819Z,101211.94
2022-12-25T09:48:13.912Z,101224.31
2022-12-25T09:51:17.731Z,101220.25
2022-12-25T09:54:39.793Z,101223.34
2022-12-25T09:57:42.160Z,101232.00
2022-12-25T10:00:56.557Z,101221.47
2022-12-25T10:04:05.168Z,101228.16
2022-12-25T10:07:16.572Z,101221.78
2022-12-25T10:10:31.713Z,101226.25
2022-12-25T10:14:05.917Z,101220.75
2022-12-25T10:17:18.157Z,101218.84
2022-12-25T10:20:29.243Z,101208.06
2022-12-25T10:23:40.865Z,101207.50
2022-12-25T10:26:44.803Z,101208.34
2022-12-25T10:29:53.382Z,101208.91
2022-12-25T10:32:58.199Z,101188.03
2022-12-25T10:36:00.951Z,101195.81
2022-12-25T10:39:03.737Z,101183.31
2022-12-25T10:42:35.978Z,101193.84
2022-12-25T10:45:49.543Z,101201.34
2022-12-25T10:48:56.561Z,101203.88
2022-12-25T10:51:59.026Z,101198.56
2022-12-25T10:55:11.769Z,101196.56
2022-12-25T10:58:19.888Z,101175.97
2022-12-25T11:01:28.219Z,101192.91
2022-12-25T11:04:35.199Z,101191.47
2022-12-25T11:07:51.254Z,101183.94
2022-12-25T11:11:00.040Z,101173.06
2022-12-25T11:14:03.226Z,101178.88
2022-12-25T11:17:09.969Z,101175.22
2022-12-25T11:20:19.333Z,101160.16
2022-12-25T11:23:24.221Z,101164.84
2022-12-25T11:26:31.875Z,101162.81
2022-12-25T11:29:47.433Z,101154.19
2022-12-25T11:32:56.126Z,101147.25
2022-12-25T11:36:04.330Z,101150.66
2022-12-25T11:39:27.468Z,101147.03
2022-12-25T11:42:45.327Z,101141.41
2022-12-25T11:45:54.886Z,101145.63
2022-12-25T11:49:04.880Z,101144.56
2022-12-25T11:52:12.810Z,101152.59
2022-12-25T11:55:55.610Z,101145.66
2022-12-25T11:59:06.379Z,101149.53
2022-12-25T12:02:32.924Z,101145.06
2022-12-25T12:05:45.334Z,101132.56
2022-12-25T12:08:53.051Z,101148.91
2022-12-25T12:12:07.592Z,101146.63
2022-12-25T12:15:30.270Z,101140.69
2022-12-25T12:18:33.938Z,101123.62
2022-12-25T12:21:36.444Z,101126.13
2022-12-25T12:24:43.192Z,101137.47
2022-12-25T12:27:45.868Z,101133.81
2022-12-25T12:31:07.678Z,101140.19
2022-12-25T12:34:31.551Z,101147.28
2022-12-25T12:37:39.199Z,101146.63
2022-12-25T12:40:54.283Z,101141.97
2022-12-25T12:44:03.534Z,101146.34
2022-12-25T12:47:05.909Z,101147.34
2022-12-25T12:50:26.215Z,101145.75
2022-12-25T12:53:32.135Z,101155.75
2022-12-25T12:56:34.819Z,101159.66
2022-12-25T12:59:40.777Z,101159.91
2022-12-25T13:03:07.673Z,101158.81
2022-12-25T13:06:30.584Z,101158.81
2022-12-25T13:10:02.631Z,101152.69
2022-12-25T13:13:30.309Z,101163.31
2022-12-25T13:16:41.455Z,101166.34
2022-12-25T13:19:44.996Z,101160.00
2022-12-25T13:22:52.567Z,101163.84
2022-12-25T13:25:58.175Z,101158.81
2022-12-25T13:29:01.993Z,101157.75
2022-12-25T13:32:15.350Z,101154.41
2022-12-25T13:35:21.175Z,101154.72
2022-12-25T13:38:25.864Z,101160.56
2022-12-25T13:41:59.131Z,101155.81
2022-12-25T13:45:24.126Z,101160.00
2022-12-25T13:48:26.931Z,101160.88
2022-12-25T13:51:29.284Z,101153.59
2022-12-25T13:54:31.943Z,101162.56
2022-12-25T13:57:38.468Z,101172.87
2022-12-25T14:00:49.884Z,101161.22
2022-12-25T14:03:54.687Z,101170.88
2022-12-25T14:07:07.924Z,101172.84
2022-12-25T14:10:13.304Z,101178.97
2022-12-25T14:13:16.854Z,101172.28
2022-12-25T14:16:21.684Z,101163.09
2022-12-25T14:19:32.421Z,101174.31
2022-12-25T14:22:36.030Z,101179.09
2022-12-25T14:25:43.980Z,101160.16
2022-12-25T14:28:49.090Z,101166.84
2022-12-25T14:31:52.547Z,101184.69
2022-12-25T14:35:03.619Z,101182.19
2022-12-25T14:38:06.373Z,101195.03
2022-12-25T14:41:33.531Z,101182.50
2022-12-25T14:44:42.379Z,101190.06
2022-12-25T14:47:57.637Z,101196.75
2022-12-25T14:51:17.302Z,101187.03
2022-12-25T14:54:23.176Z,101187.59
2022-12-25T14:57:37.052Z,101195.91
2022-12-25T15:00:40.192Z,101194.00
2022-12-25T15:03:43.742Z,101194.28
2022-12-25T15:06:55.545Z,101195.97
2022-12-25T15:10:26.994Z,101200.44
2022-12-25T15:13:20.942Z,101183.50
2022-12-25T15:16:29.712Z,101199.91
2022-12-25T15:19:38.241Z,101183.28
2022-12-25T15:23:17.871Z,101199.97
2022-12-25T15:26:03.964Z,101200.53
2022-12-25T15:29:07.554Z,101188.88
2022-12-25T15:32:19.056Z,101194.44
2022-12-25T15:35:22.233Z,101205.56
2022-12-25T15:38:24.896Z,101197.50
2022-12-25T15:41:53.751Z,101188.03
2022-12-25T15:44:56.678Z,101194.72
2022-12-25T15:47:59.206Z,101209.47
2022-12-25T15:51:01.796Z,101218.09
2022-12-25T15:54:04.601Z,101203.91
2022-12-25T15:57:17.000Z,101186.13
2022-12-25T16:00:22.777Z,101193.06
2022-12-25T16:03:25.510Z,101207.78
2022-12-25T16:06:27.891Z,101200.28
2022-12-25T16:09:30.543Z,101206.94
2022-12-25T16:12:32.920Z,101218.59
2022-12-25T16:15:35.664Z,101204.72
2022-12-25T16:18:43.363Z,101199.44
2022-12-25T16:21:50.144Z,101197.78
2022-12-25T16:24:53.106Z,101200.28
2022-12-25T16:27:55.706Z,101192.22
2022-12-25T16:30:58.280Z,101182.50
2022-12-25T16:34:01.535Z,101188.06
2022-12-25T16:37:04.662Z,101185.00
2022-12-25T16:40:09.565Z,101176.37
2022-12-25T16:43:11.905Z,101166.91
2022-12-25T16:46:17.974Z,101173.59
2022-12-25T16:49:20.427Z,101177.22
2022-12-25T16:52:23.176Z,101185.84
2022-12-25T16:55:29.873Z,101163.31
2022-12-25T16:58:33.108Z,101182.47
2022-12-25T17:01:35.638Z,101172.19
2022-12-25T17:04:39.380Z,101181.41
2022-12-25T17:07:43.006Z,101174.44
2022-12-25T17:10:45.583Z,101169.16
2022-12-25T17:13:48.517Z,101171.94
2022-12-25T17:16:51.417Z,101168.59
2022-12-25T17:19:53.808Z,101171.66
2022-12-25T17:22:57.662Z,101175.00
2022-12-25T17:26:01.543Z,101163.88
2022-12-25T17:29:04.317Z,101175.53
2022-12-25T17:32:07.925Z,101169.44
2022-12-25T17:35:10.588Z,101160.81
2022-12-25T17:38:13.155Z,101152.75
2022-12-25T17:41:17.713Z,101143.34
2022-12-25T17:44:23.114Z,101142.50
2022-12-25T17:47:26.278Z,101135.00
2022-12-25T17:50:28.583Z,101130.78
2022-12-25T17:53:31.881Z,101144.16
2022-12-25T17:56:34.376Z,101139.97
2022-12-25T17:59:37.034Z,101142.19
2022-12-25T18:02:40.259Z,101153.84
2022-12-25T18:05:43.110Z,101138.84
2022-12-25T18:08:46.595Z,101161.06
2022-12-25T18:11:49.228Z,101158.00
2022-12-25T18:14:51.697Z,101159.94
2022-12-25T18:17:54.503Z,101165.78
2022-12-25T18:20:56.886Z,101153.56
2022-12-25T18:23:59.671Z,101149.66
2022-12-25T18:27:02.000Z,101153.81
2022-12-25T18:30:05.188Z,101138.50
2022-12-25T18:33:07.917Z,101147.97
2022-12-25T18:36:13.207Z,101144.63
2022-12-25T18:39:15.649Z,101143.81
2022-12-25T18:42:37.074Z,101133.25
2022-12-25T18:45:40.405Z,101142.16
2022-12-25T18:48:44.320Z,101120.47
2022-12-25T18:51:48.828Z,101139.91
2022-12-25T18:54:51.535Z,101140.47
2022-12-25T18:57:54.400Z,101142.16
2022-12-25T19:00:57.116Z,101138.25
2022-12-25T19:04:05.051Z,101133.25
2022-12-25T19:07:08.454Z,101133.81
2022-12-25T19:10:11.053Z,101131.34
2022-12-25T19:13:13.749Z,101131.87
2022-12-25T19:16:16.554Z,101119.94
2022-12-25T19:19:20.758Z,101098.84
2022-12-25T19:22:23.248Z,101119.94
2022-12-25T19:25:26.331Z,101098.00
2022-12-25T19:28:28.661Z,101122.44
2022-12-25T19:31:31.338Z,101120.22
2022-12-25T19:34:33.791Z,101114.09
2022-12-25T19:37:36.530Z,101122.16
2022-12-25T19:40:40.502Z,101126.91
2022-12-25T19:43:47.502Z,101127.16
2022-12-25T19:46:50.066Z,101139.13
2022-12-25T19:49:53.659Z,101125.50
2022-12-25T19:52:57.331Z,101122.47
2022-12-25T19:56:02.493Z,101112.72
2022-12-25T19:59:04.896Z,101113.84
2022-12-25T20:02:07.666Z,101099.38
2022-12-25T20:05:10.471Z,101104.69
2022-12-25T20:08:12.786Z,101072.44
2022-12-25T20:11:16.891Z,101056.91
2022-12-25T20:14:19.722Z,101052.19
2022-12-25T20:17:22.443Z,101064.41
2022-12-25T20:20:24.793Z,101073.28
2022-12-25T20:23:28.112Z,101076.63
2022-12-25T20:26:31.741Z,101079.38
2022-12-25T20:29:34.441Z,101094.94
2022-12-25T20:32:36.778Z,101082.16
2022-12-25T20:35:45.107Z,101077.16
2022-12-25T20:38:47.528Z,101073.81
2022-12-25T20:41:50.121Z,101063.84
2022-12-25T20:44:52.468Z,101069.38
2022-12-25T20:47:55.478Z,101067.19
2022-12-25T20:51:08.258Z,101087.44
2022-12-25T20:54:12.733Z,101067.72
2022-12-25T20:57:15.090Z,101077.47
2022-12-25T21:00:17.833Z,101058.00
2022-12-25T21:03:20.501Z,101072.16
2022-12-25T21:06:23.255Z,101073.00
2022-12-25T21:09:26.369Z,101078.84
2022-12-25T21:12:29.305Z,101067.19
2022-12-25T21:15:31.592Z,101064.41
2022-12-25T21:18:34.347Z,101053.31
2022-12-25T21:21:39.165Z,101056.34
2022-12-25T21:24:41.835Z,101051.63
2022-12-25T21:27:44.197Z,101068.56
2022-12-25T21:30:46.891Z,101060.25
2022-12-25T21:33:52.846Z,101060.50
2022-12-25T21:36:55.663Z,101049.38
2022-12-25T21:39:58.201Z,101057.19
2022-12-25T21:43:01.285Z,101049.38
2022-12-25T21:46:22.027Z,101043.00
2022-12-25T21:49:43.351Z,101040.53
2022-12-25T21:52:45.752Z,101039.94
2022-12-25T21:56:04.556Z,101046.63
2022-12-25T21:59:08.948Z,101061.63
2022-12-25T22:02:12.228Z,101066.34
2022-12-25T22:05:35.584Z,101081.34
2022-12-25T22:08:37.950Z,101083.56
2022-12-25T22:11:59.286Z,101083.56
2022-12-25T22:15:06.136Z,101084.66
2022-12-25T22:18:27.328Z,101070.50
2022-12-25T22:21:29.660Z,101078.28
2022-12-25T22:24:32.458Z,101066.06
2022-12-25T22:27:38.018Z,101081.59
2022-12-25T22:30:44.396Z,101061.63
2022-12-25T22:33:46.843Z,101044.41
2022-12-25T22:36:50.222Z,101054.66
2022-12-25T22:39:52.630Z,101049.94
2022-12-25T22:42:55.967Z,101069.41
2022-12-25T22:46:01.975Z,101061.63
2022-12-25T22:49:04.765Z,101055.50
2022-12-25T22:52:09.435Z,101069.97
2022-12-25T22:55:12.516Z,101079.41
2022-12-25T22:58:15.418Z,101054.37
2022-12-25T23:01:18.092Z,101058.28
2022-12-25T23:04:23.927Z,101056.63
2022-12-25T23:07:26.607Z,101045.50
2022-12-25T23:10:29.095Z,101034.94
2022-12-25T23:13:50.281Z,101048.28
2022-12-25T23:16:52.615Z,101057.44
2022-12-25T23:20:14.858Z,101048.28
2022-12-25T23:23:36.579Z,101058.28
2022-12-25T23:26:39.137Z,101048.84
2022-12-25T23:29:41.478Z,101052.19
2022-12-25T23:32:45.332Z,101039.12
2022-12-25T23:35:47.653Z,101058.56
2022-12-25T23:38:50.416Z,101038.84
2022-12-25T23:41:52.894Z,101031.34
2022-12-25T23:44:55.713Z,101022.47
2022-12-25T23:47:58.018Z,101025.53
2022-12-25T23:51:05.629Z,101034.13
2022-12-25T23:54:08.023Z,101012.19
2022-12-25T23:57:10.685Z,101031.06
